Terminal Aerodrome Forecast
Issued by NWS

Home | Current Version | Previous Version | Text Only | Print | Product List | Glossary On
Versions: 1 2 3 4 5 6 7 8 9 10 11 12
000
FTUS44 KLIX 160550
TAFMSY
TAF
KMSY 160550Z 1606/1712 00000KT P6SM FEW250
     FM161100 03004KT P6SM SCT035 BKN140
     FM161400 01009KT P6SM SCT020 BKN060
     FM161700 36013KT P6SM BKN030 BKN080
     FM161900 35014KT P6SM BKN020 OVC060
     FM162200 36015G22KT P6SM VCSH BKN014 OVC025
     FM170100 36016G23KT P6SM -PLSN BKN014 OVC020=

USA.gov is the U.S. government's official web portal to all federal, state and local government web resources and services.